sensor_id;sensor_type;location;lat;lon;timestamp;P1;durP1;ratioP1;P2;durP2;ratioP2
59516;SDS011;45342;42.662;27.718;2023-02-01T00:01:28;7.13;;;4.43;;
59516;SDS011;45342;42.662;27.718;2023-02-01T00:04:03;8.73;;;4.85;;
59516;SDS011;45342;42.662;27.718;2023-02-01T00:06:28;9.55;;;5.20;;
59516;SDS011;45342;42.662;27.718;2023-02-01T00:09:33;8.00;;;4.78;;
59516;SDS011;45342;42.662;27.718;2023-02-01T00:17:04;7.68;;;4.60;;
59516;SDS011;45342;42.662;27.718;2023-02-01T00:19:33;7.88;;;4.60;;
59516;SDS011;45342;42.662;27.718;2023-02-01T00:21:59;7.47;;;4.90;;
59516;SDS011;45342;42.662;27.718;2023-02-01T00:24:27;7.90;;;4.75;;
59516;SDS011;45342;42.662;27.718;2023-02-01T00:26:53;8.70;;;4.82;;
59516;SDS011;45342;42.662;27.718;2023-02-01T00:29:25;7.65;;;4.63;;
59516;SDS011;45342;42.662;27.718;2023-02-01T00:31:51;7.22;;;4.75;;
59516;SDS011;45342;42.662;27.718;2023-02-01T00:34:20;7.82;;;4.78;;
59516;SDS011;45342;42.662;27.718;2023-02-01T00:36:46;7.53;;;4.57;;
59516;SDS011;45342;42.662;27.718;2023-02-01T00:39:18;7.60;;;4.65;;
59516;SDS011;45342;42.662;27.718;2023-02-01T00:41:44;7.50;;;4.38;;
59516;SDS011;45342;42.662;27.718;2023-02-01T00:44:09;8.57;;;4.75;;
59516;SDS011;45342;42.662;27.718;2023-02-01T00:46:35;8.15;;;4.50;;
59516;SDS011;45342;42.662;27.718;2023-02-01T00:49:01;7.43;;;4.50;;
59516;SDS011;45342;42.662;27.718;2023-02-01T00:51:28;8.05;;;5.05;;
59516;SDS011;45342;42.662;27.718;2023-02-01T00:53:56;7.68;;;4.68;;
59516;SDS011;45342;42.662;27.718;2023-02-01T00:56:22;7.78;;;4.47;;
59516;SDS011;45342;42.662;27.718;2023-02-01T00:58:49;8.32;;;4.82;;
59516;SDS011;45342;42.662;27.718;2023-02-01T01:03:45;8.32;;;4.75;;
59516;SDS011;45342;42.662;27.718;2023-02-01T01:06:14;6.63;;;4.15;;
59516;SDS011;45342;42.662;27.718;2023-02-01T01:08:41;7.18;;;4.57;;
59516;SDS011;45342;42.662;27.718;2023-02-01T01:13:38;7.50;;;4.35;;
59516;SDS011;45342;42.662;27.718;2023-02-01T01:16:10;7.13;;;4.28;;
59516;SDS011;45342;42.662;27.718;2023-02-01T01:18:36;6.55;;;4.18;;
59516;SDS011;45342;42.662;27.718;2023-02-01T01:21:03;7.25;;;4.55;;
59516;SDS011;45342;42.662;27.718;2023-02-01T01:23:31;7.28;;;4.57;;
59516;SDS011;45342;42.662;27.718;2023-02-01T01:25:57;6.93;;;4.55;;
59516;SDS011;45342;42.662;27.718;2023-02-01T01:28:23;7.15;;;4.38;;
59516;SDS011;45342;42.662;27.718;2023-02-01T01:30:49;6.57;;;4.32;;
59516;SDS011;45342;42.662;27.718;2023-02-01T01:35:43;7.97;;;4.55;;
59516;SDS011;45342;42.662;27.718;2023-02-01T01:38:09;7.50;;;4.80;;
59516;SDS011;45342;42.662;27.718;2023-02-01T01:40:38;6.57;;;3.95;;
59516;SDS011;45342;42.662;27.718;2023-02-01T01:43:11;7.63;;;4.13;;
59516;SDS011;45342;42.662;27.718;2023-02-01T01:45:42;7.30;;;4.30;;
59516;SDS011;45342;42.662;27.718;2023-02-01T01:53:16;8.13;;;4.63;;
59516;SDS011;45342;42.662;27.718;2023-02-01T01:55:45;7.32;;;4.32;;
59516;SDS011;45342;42.662;27.718;2023-02-01T01:58:16;6.57;;;4.10;;
59516;SDS011;45342;42.662;27.718;2023-02-01T02:00:45;6.80;;;4.10;;
59516;SDS011;45342;42.662;27.718;2023-02-01T02:03:15;7.10;;;4.38;;
59516;SDS011;45342;42.662;27.718;2023-02-01T02:08:53;6.05;;;4.13;;
59516;SDS011;45342;42.662;27.718;2023-02-01T02:11:19;6.45;;;3.80;;
59516;SDS011;45342;42.662;27.718;2023-02-01T02:13:46;5.80;;;3.80;;
59516;SDS011;45342;42.662;27.718;2023-02-01T02:22:05;7.00;;;4.07;;
59516;SDS011;45342;42.662;27.718;2023-02-01T02:30:38;6.32;;;3.92;;
59516;SDS011;45342;42.662;27.718;2023-02-01T02:36:12;7.32;;;3.97;;
59516;SDS011;45342;42.662;27.718;2023-02-01T02:38:56;7.13;;;4.10;;
59516;SDS011;45342;42.662;27.718;2023-02-01T02:56:48;6.30;;;4.00;;
59516;SDS011;45342;42.662;27.718;2023-02-01T02:59:36;6.68;;;4.20;;
59516;SDS011;45342;42.662;27.718;2023-02-01T03:02:26;7.47;;;3.88;;
59516;SDS011;45342;42.662;27.718;2023-02-01T03:05:12;7.00;;;3.90;;
59516;SDS011;45342;42.662;27.718;2023-02-01T03:10:11;7.13;;;3.90;;
59516;SDS011;45342;42.662;27.718;2023-02-01T03:12:44;6.15;;;4.10;;
59516;SDS011;45342;42.662;27.718;2023-02-01T03:18:17;7.32;;;3.97;;
59516;SDS011;45342;42.662;27.718;2023-02-01T03:20:49;6.18;;;4.03;;
59516;SDS011;45342;42.662;27.718;2023-02-01T03:23:17;7.32;;;4.07;;
59516;SDS011;45342;42.662;27.718;2023-02-01T03:25:47;6.55;;;4.07;;
59516;SDS011;45342;42.662;27.718;2023-02-01T03:28:14;8.15;;;4.45;;
59516;SDS011;45342;42.662;27.718;2023-02-01T03:30:48;6.15;;;3.75;;
59516;SDS011;45342;42.662;27.718;2023-02-01T03:33:16;7.60;;;4.53;;
59516;SDS011;45342;42.662;27.718;2023-02-01T03:41:46;6.97;;;4.28;;
59516;SDS011;45342;42.662;27.718;2023-02-01T03:44:26;6.85;;;4.05;;
59516;SDS011;45342;42.662;27.718;2023-02-01T03:47:24;5.85;;;3.88;;
59516;SDS011;45342;42.662;27.718;2023-02-01T03:52:42;7.07;;;3.65;;
59516;SDS011;45342;42.662;27.718;2023-02-01T03:55:11;5.72;;;3.85;;
59516;SDS011;45342;42.662;27.718;2023-02-01T03:57:40;6.50;;;3.88;;
59516;SDS011;45342;42.662;27.718;2023-02-01T04:00:20;6.57;;;4.10;;
59516;SDS011;45342;42.662;27.718;2023-02-01T04:02:49;7.25;;;4.28;;
59516;SDS011;45342;42.662;27.718;2023-02-01T04:05:15;6.53;;;3.88;;
59516;SDS011;45342;42.662;27.718;2023-02-01T04:07:41;8.02;;;4.30;;
59516;SDS011;45342;42.662;27.718;2023-02-01T04:10:08;7.75;;;4.10;;
59516;SDS011;45342;42.662;27.718;2023-02-01T04:12:34;6.07;;;3.97;;
59516;SDS011;45342;42.662;27.718;2023-02-01T04:15:00;6.45;;;4.07;;
59516;SDS011;45342;42.662;27.718;2023-02-01T04:17:26;6.65;;;4.10;;
59516;SDS011;45342;42.662;27.718;2023-02-01T04:19:53;7.13;;;4.38;;
59516;SDS011;45342;42.662;27.718;2023-02-01T04:22:19;6.80;;;4.00;;
59516;SDS011;45342;42.662;27.718;2023-02-01T04:24:44;5.95;;;4.15;;
59516;SDS011;45342;42.662;27.718;2023-02-01T04:27:11;6.38;;;4.15;;
59516;SDS011;45342;42.662;27.718;2023-02-01T04:29:37;5.55;;;3.97;;
59516;SDS011;45342;42.662;27.718;2023-02-01T04:32:04;7.22;;;4.00;;
59516;SDS011;45342;42.662;27.718;2023-02-01T04:34:30;6.05;;;3.88;;
59516;SDS011;45342;42.662;27.718;2023-02-01T04:36:56;6.80;;;4.20;;
59516;SDS011;45342;42.662;27.718;2023-02-01T04:39:22;6.90;;;4.20;;
59516;SDS011;45342;42.662;27.718;2023-02-01T04:41:49;7.13;;;4.20;;
59516;SDS011;45342;42.662;27.718;2023-02-01T04:46:42;6.70;;;4.07;;
59516;SDS011;45342;42.662;27.718;2023-02-01T04:49:10;6.60;;;4.30;;
59516;SDS011;45342;42.662;27.718;2023-02-01T04:51:36;6.35;;;3.83;;
59516;SDS011;45342;42.662;27.718;2023-02-01T04:54:02;6.13;;;4.00;;
59516;SDS011;45342;42.662;27.718;2023-02-01T04:56:28;6.40;;;3.90;;
59516;SDS011;45342;42.662;27.718;2023-02-01T04:58:54;5.93;;;3.87;;
59516;SDS011;45342;42.662;27.718;2023-02-01T05:01:21;6.00;;;4.00;;
59516;SDS011;45342;42.662;27.718;2023-02-01T05:03:48;5.40;;;3.85;;
59516;SDS011;45342;42.662;27.718;2023-02-01T05:06:13;5.88;;;3.70;;
59516;SDS011;45342;42.662;27.718;2023-02-01T05:08:40;6.15;;;3.95;;
59516;SDS011;45342;42.662;27.718;2023-02-01T05:11:07;7.15;;;4.20;;
59516;SDS011;45342;42.662;27.718;2023-02-01T05:13:54;6.45;;;4.05;;
59516;SDS011;45342;42.662;27.718;2023-02-01T05:16:43;6.75;;;4.20;;
59516;SDS011;45342;42.662;27.718;2023-02-01T05:19:10;5.57;;;3.65;;
59516;SDS011;45342;42.662;27.718;2023-02-01T05:21:48;6.88;;;4.15;;
59516;SDS011;45342;42.662;27.718;2023-02-01T05:24:13;7.35;;;3.80;;
59516;SDS011;45342;42.662;27.718;2023-02-01T05:26:53;6.97;;;4.15;;
59516;SDS011;45342;42.662;27.718;2023-02-01T05:29:23;6.00;;;4.00;;
59516;SDS011;45342;42.662;27.718;2023-02-01T05:31:49;7.20;;;4.10;;
59516;SDS011;45342;42.662;27.718;2023-02-01T05:34:15;7.43;;;4.40;;
59516;SDS011;45342;42.662;27.718;2023-02-01T05:36:59;5.97;;;4.00;;
59516;SDS011;45342;42.662;27.718;2023-02-01T05:39:26;6.35;;;4.18;;
59516;SDS011;45342;42.662;27.718;2023-02-01T05:41:55;5.88;;;3.67;;
59516;SDS011;45342;42.662;27.718;2023-02-01T05:44:21;6.45;;;3.90;;
59516;SDS011;45342;42.662;27.718;2023-02-01T05:46:47;6.13;;;3.88;;
59516;SDS011;45342;42.662;27.718;2023-02-01T05:49:21;6.88;;;4.35;;
59516;SDS011;45342;42.662;27.718;2023-02-01T05:51:47;5.38;;;3.70;;
59516;SDS011;45342;42.662;27.718;2023-02-01T05:54:12;7.30;;;4.53;;
59516;SDS011;45342;42.662;27.718;2023-02-01T05:56:38;5.97;;;3.78;;
59516;SDS011;45342;42.662;27.718;2023-02-01T05:59:05;5.90;;;4.03;;
59516;SDS011;45342;42.662;27.718;2023-02-01T06:01:31;6.47;;;3.88;;
59516;SDS011;45342;42.662;27.718;2023-02-01T06:03:59;5.85;;;3.90;;
59516;SDS011;45342;42.662;27.718;2023-02-01T06:06:26;6.55;;;4.03;;
59516;SDS011;45342;42.662;27.718;2023-02-01T06:08:52;6.40;;;3.83;;
59516;SDS011;45342;42.662;27.718;2023-02-01T06:11:18;5.30;;;4.07;;
59516;SDS011;45342;42.662;27.718;2023-02-01T06:13:43;6.80;;;4.30;;
59516;SDS011;45342;42.662;27.718;2023-02-01T06:16:09;5.78;;;4.28;;
59516;SDS011;45342;42.662;27.718;2023-02-01T06:18:34;5.97;;;3.83;;
59516;SDS011;45342;42.662;27.718;2023-02-01T06:21:00;5.90;;;4.13;;
59516;SDS011;45342;42.662;27.718;2023-02-01T06:23:26;6.22;;;3.80;;
59516;SDS011;45342;42.662;27.718;2023-02-01T06:25:57;5.78;;;3.90;;
59516;SDS011;45342;42.662;27.718;2023-02-01T06:28:27;6.30;;;4.28;;
59516;SDS011;45342;42.662;27.718;2023-02-01T06:30:53;6.60;;;4.35;;
59516;SDS011;45342;42.662;27.718;2023-02-01T06:33:20;5.78;;;3.83;;
59516;SDS011;45342;42.662;27.718;2023-02-01T06:35:49;6.53;;;4.10;;
59516;SDS011;45342;42.662;27.718;2023-02-01T06:38:23;7.45;;;4.20;;
59516;SDS011;45342;42.662;27.718;2023-02-01T06:40:55;6.05;;;4.30;;
59516;SDS011;45342;42.662;27.718;2023-02-01T06:43:24;6.43;;;4.15;;
59516;SDS011;45342;42.662;27.718;2023-02-01T06:45:50;6.43;;;4.10;;
59516;SDS011;45342;42.662;27.718;2023-02-01T06:48:17;5.95;;;3.83;;
59516;SDS011;45342;42.662;27.718;2023-02-01T06:50:46;6.65;;;4.38;;
59516;SDS011;45342;42.662;27.718;2023-02-01T06:53:12;5.32;;;3.60;;
59516;SDS011;45342;42.662;27.718;2023-02-01T06:55:59;6.85;;;3.92;;
59516;SDS011;45342;42.662;27.718;2023-02-01T07:11:04;6.28;;;4.13;;
59516;SDS011;45342;42.662;27.718;2023-02-01T07:16:57;6.03;;;4.10;;
59516;SDS011;45342;42.662;27.718;2023-02-01T07:22:45;5.38;;;4.10;;
59516;SDS011;45342;42.662;27.718;2023-02-01T07:25:28;5.45;;;3.78;;
59516;SDS011;45342;42.662;27.718;2023-02-01T07:27:55;5.43;;;3.95;;
59516;SDS011;45342;42.662;27.718;2023-02-01T07:30:23;6.43;;;4.38;;
59516;SDS011;45342;42.662;27.718;2023-02-01T07:32:53;6.68;;;4.20;;
59516;SDS011;45342;42.662;27.718;2023-02-01T07:35:21;5.78;;;4.05;;
59516;SDS011;45342;42.662;27.718;2023-02-01T07:37:48;6.25;;;4.10;;
59516;SDS011;45342;42.662;27.718;2023-02-01T07:40:18;5.28;;;3.58;;
59516;SDS011;45342;42.662;27.718;2023-02-01T07:42:57;7.93;;;4.10;;
59516;SDS011;45342;42.662;27.718;2023-02-01T07:45:25;5.93;;;3.92;;
59516;SDS011;45342;42.662;27.718;2023-02-01T07:47:52;6.70;;;4.30;;
59516;SDS011;45342;42.662;27.718;2023-02-01T07:50:21;6.53;;;4.05;;
59516;SDS011;45342;42.662;27.718;2023-02-01T07:52:52;7.13;;;4.80;;
59516;SDS011;45342;42.662;27.718;2023-02-01T07:55:24;5.47;;;4.05;;
59516;SDS011;45342;42.662;27.718;2023-02-01T07:57:56;5.97;;;4.10;;
59516;SDS011;45342;42.662;27.718;2023-02-01T08:00:25;6.32;;;4.45;;
59516;SDS011;45342;42.662;27.718;2023-02-01T08:03:10;5.28;;;3.85;;
59516;SDS011;45342;42.662;27.718;2023-02-01T08:05:36;5.68;;;3.63;;
59516;SDS011;45342;42.662;27.718;2023-02-01T08:08:03;6.40;;;4.00;;
59516;SDS011;45342;42.662;27.718;2023-02-01T08:10:31;5.78;;;4.30;;
59516;SDS011;45342;42.662;27.718;2023-02-01T08:13:01;6.25;;;4.07;;
59516;SDS011;45342;42.662;27.718;2023-02-01T08:15:30;6.05;;;4.20;;
59516;SDS011;45342;42.662;27.718;2023-02-01T08:17:56;5.85;;;4.28;;
59516;SDS011;45342;42.662;27.718;2023-02-01T08:20:24;6.50;;;3.97;;
59516;SDS011;45342;42.662;27.718;2023-02-01T08:22:51;6.10;;;4.13;;
59516;SDS011;45342;42.662;27.718;2023-02-01T08:25:18;6.90;;;4.07;;
59516;SDS011;45342;42.662;27.718;2023-02-01T08:27:46;6.32;;;4.47;;
59516;SDS011;45342;42.662;27.718;2023-02-01T08:30:13;6.00;;;4.05;;
59516;SDS011;45342;42.662;27.718;2023-02-01T08:32:43;6.28;;;4.00;;
59516;SDS011;45342;42.662;27.718;2023-02-01T08:35:10;6.53;;;4.18;;
59516;SDS011;45342;42.662;27.718;2023-02-01T08:37:36;6.60;;;3.95;;
59516;SDS011;45342;42.662;27.718;2023-02-01T08:40:03;6.28;;;4.05;;
59516;SDS011;45342;42.662;27.718;2023-02-01T08:42:30;4.85;;;3.85;;
59516;SDS011;45342;42.662;27.718;2023-02-01T08:45:14;6.30;;;4.13;;
59516;SDS011;45342;42.662;27.718;2023-02-01T08:47:39;7.60;;;3.90;;
59516;SDS011;45342;42.662;27.718;2023-02-01T08:50:14;7.10;;;4.30;;
59516;SDS011;45342;42.662;27.718;2023-02-01T08:57:44;6.53;;;3.88;;
59516;SDS011;45342;42.662;27.718;2023-02-01T09:00:25;5.60;;;3.90;;
59516;SDS011;45342;42.662;27.718;2023-02-01T09:05:32;8.27;;;4.05;;
59516;SDS011;45342;42.662;27.718;2023-02-01T09:07:58;12.05;;;6.07;;
59516;SDS011;45342;42.662;27.718;2023-02-01T09:13:14;19.48;;;11.48;;
59516;SDS011;45342;42.662;27.718;2023-02-01T09:20:49;15.17;;;8.67;;
59516;SDS011;45342;42.662;27.718;2023-02-01T09:23:15;14.40;;;8.45;;
59516;SDS011;45342;42.662;27.718;2023-02-01T09:25:48;13.48;;;8.07;;
59516;SDS011;45342;42.662;27.718;2023-02-01T09:28:28;13.98;;;8.05;;
59516;SDS011;45342;42.662;27.718;2023-02-01T09:33:42;12.90;;;7.97;;
59516;SDS011;45342;42.662;27.718;2023-02-01T09:36:10;11.70;;;7.38;;
59516;SDS011;45342;42.662;27.718;2023-02-01T09:53:27;14.38;;;8.13;;
59516;SDS011;45342;42.662;27.718;2023-02-01T10:01:35;14.07;;;7.72;;
59516;SDS011;45342;42.662;27.718;2023-02-01T10:04:07;12.18;;;7.50;;
59516;SDS011;45342;42.662;27.718;2023-02-01T10:06:56;13.00;;;7.18;;
59516;SDS011;45342;42.662;27.718;2023-02-01T10:12:06;9.98;;;6.88;;
59516;SDS011;45342;42.662;27.718;2023-02-01T10:26:12;11.00;;;6.35;;
59516;SDS011;45342;42.662;27.718;2023-02-01T10:28:41;11.10;;;6.40;;
59516;SDS011;45342;42.662;27.718;2023-02-01T10:31:08;9.43;;;6.28;;
59516;SDS011;45342;42.662;27.718;2023-02-01T10:42:09;9.43;;;5.78;;
59516;SDS011;45342;42.662;27.718;2023-02-01T10:44:35;10.05;;;6.00;;
59516;SDS011;45342;42.662;27.718;2023-02-01T10:47:08;8.88;;;6.00;;
59516;SDS011;45342;42.662;27.718;2023-02-01T10:50:35;9.43;;;5.28;;
59516;SDS011;45342;42.662;27.718;2023-02-01T10:58:35;7.38;;;5.18;;
59516;SDS011;45342;42.662;27.718;2023-02-01T11:04:20;8.23;;;5.28;;
59516;SDS011;45342;42.662;27.718;2023-02-01T11:10:12;8.10;;;5.15;;
59516;SDS011;45342;42.662;27.718;2023-02-01T11:21:19;9.43;;;5.22;;
59516;SDS011;45342;42.662;27.718;2023-02-01T11:23:51;10.90;;;5.57;;
59516;SDS011;45342;42.662;27.718;2023-02-01T11:31:29;11.95;;;5.60;;
59516;SDS011;45342;42.662;27.718;2023-02-01T11:33:59;10.27;;;5.40;;
59516;SDS011;45342;42.662;27.718;2023-02-01T11:36:31;11.52;;;5.80;;
59516;SDS011;45342;42.662;27.718;2023-02-01T11:44:38;14.18;;;6.35;;
59516;SDS011;45342;42.662;27.718;2023-02-01T11:50:02;26.08;;;7.80;;
59516;SDS011;45342;42.662;27.718;2023-02-01T12:01:00;27.83;;;8.98;;
59516;SDS011;45342;42.662;27.718;2023-02-01T12:03:47;43.72;;;9.57;;
59516;SDS011;45342;42.662;27.718;2023-02-01T12:26:35;19.23;;;7.35;;
59516;SDS011;45342;42.662;27.718;2023-02-01T12:38:04;19.05;;;6.65;;
59516;SDS011;45342;42.662;27.718;2023-02-01T12:40:48;20.45;;;7.25;;
59516;SDS011;45342;42.662;27.718;2023-02-01T12:46:39;18.35;;;7.18;;
59516;SDS011;45342;42.662;27.718;2023-02-01T12:51:51;26.20;;;9.18;;
59516;SDS011;45342;42.662;27.718;2023-02-01T12:57:31;19.40;;;8.25;;
59516;SDS011;45342;42.662;27.718;2023-02-01T13:00:06;23.65;;;8.20;;
59516;SDS011;45342;42.662;27.718;2023-02-01T13:02:44;23.13;;;8.02;;
59516;SDS011;45342;42.662;27.718;2023-02-01T13:05:23;23.52;;;8.35;;
59516;SDS011;45342;42.662;27.718;2023-02-01T13:07:57;15.05;;;7.35;;
59516;SDS011;45342;42.662;27.718;2023-02-01T13:10:35;18.52;;;8.20;;
59516;SDS011;45342;42.662;27.718;2023-02-01T13:13:22;18.77;;;7.53;;
59516;SDS011;45342;42.662;27.718;2023-02-01T13:16:12;16.60;;;7.03;;
59516;SDS011;45342;42.662;27.718;2023-02-01T13:18:41;15.00;;;7.40;;
59516;SDS011;45342;42.662;27.718;2023-02-01T13:21:26;17.25;;;7.63;;
59516;SDS011;45342;42.662;27.718;2023-02-01T13:23:54;16.48;;;7.00;;
59516;SDS011;45342;42.662;27.718;2023-02-01T13:26:21;18.35;;;7.35;;
59516;SDS011;45342;42.662;27.718;2023-02-01T13:28:51;15.80;;;7.03;;
59516;SDS011;45342;42.662;27.718;2023-02-01T13:37:35;14.25;;;6.32;;
59516;SDS011;45342;42.662;27.718;2023-02-01T13:43:04;13.35;;;6.57;;
59516;SDS011;45342;42.662;27.718;2023-02-01T13:45:34;17.30;;;6.93;;
59516;SDS011;45342;42.662;27.718;2023-02-01T13:48:03;12.13;;;6.15;;
59516;SDS011;45342;42.662;27.718;2023-02-01T13:50:31;14.73;;;6.72;;
59516;SDS011;45342;42.662;27.718;2023-02-01T13:56:01;13.43;;;6.50;;
59516;SDS011;45342;42.662;27.718;2023-02-01T13:58:36;11.18;;;5.85;;
59516;SDS011;45342;42.662;27.718;2023-02-01T14:03:49;11.02;;;5.97;;
59516;SDS011;45342;42.662;27.718;2023-02-01T14:06:18;14.90;;;6.22;;
59516;SDS011;45342;42.662;27.718;2023-02-01T14:11:54;9.32;;;5.20;;
59516;SDS011;45342;42.662;27.718;2023-02-01T14:19:25;10.02;;;5.70;;
59516;SDS011;45342;42.662;27.718;2023-02-01T14:21:54;11.93;;;6.20;;
59516;SDS011;45342;42.662;27.718;2023-02-01T14:24:27;9.52;;;5.35;;
59516;SDS011;45342;42.662;27.718;2023-02-01T14:27:06;15.02;;;6.00;;
59516;SDS011;45342;42.662;27.718;2023-02-01T14:29:43;8.98;;;5.30;;
59516;SDS011;45342;42.662;27.718;2023-02-01T14:32:21;10.63;;;5.60;;
59516;SDS011;45342;42.662;27.718;2023-02-01T14:42:42;12.60;;;5.72;;
59516;SDS011;45342;42.662;27.718;2023-02-01T14:47:49;11.35;;;5.20;;
59516;SDS011;45342;42.662;27.718;2023-02-01T14:55:46;7.82;;;4.75;;
59516;SDS011;45342;42.662;27.718;2023-02-01T15:01:04;9.45;;;5.30;;
59516;SDS011;45342;42.662;27.718;2023-02-01T15:14:20;8.05;;;5.25;;
59516;SDS011;45342;42.662;27.718;2023-02-01T15:16:46;9.30;;;5.30;;
59516;SDS011;45342;42.662;27.718;2023-02-01T15:19:18;10.18;;;5.00;;
59516;SDS011;45342;42.662;27.718;2023-02-01T15:21:47;8.43;;;5.22;;
59516;SDS011;45342;42.662;27.718;2023-02-01T15:24:20;10.13;;;5.43;;
59516;SDS011;45342;42.662;27.718;2023-02-01T15:26:51;9.68;;;5.50;;
59516;SDS011;45342;42.662;27.718;2023-02-01T15:29:18;10.85;;;5.25;;
59516;SDS011;45342;42.662;27.718;2023-02-01T15:31:46;8.75;;;5.13;;
59516;SDS011;45342;42.662;27.718;2023-02-01T15:34:14;8.75;;;5.45;;
59516;SDS011;45342;42.662;27.718;2023-02-01T15:36:41;9.75;;;5.75;;
59516;SDS011;45342;42.662;27.718;2023-02-01T15:39:12;11.27;;;6.18;;
59516;SDS011;45342;42.662;27.718;2023-02-01T15:41:47;12.07;;;5.90;;
59516;SDS011;45342;42.662;27.718;2023-02-01T15:44:57;9.90;;;5.55;;
59516;SDS011;45342;42.662;27.718;2023-02-01T15:47:17;10.30;;;5.28;;
59516;SDS011;45342;42.662;27.718;2023-02-01T15:49:45;10.70;;;5.20;;
59516;SDS011;45342;42.662;27.718;2023-02-01T15:52:25;9.98;;;5.57;;
59516;SDS011;45342;42.662;27.718;2023-02-01T15:54:58;10.88;;;5.63;;
59516;SDS011;45342;42.662;27.718;2023-02-01T15:57:27;10.25;;;5.50;;
59516;SDS011;45342;42.662;27.718;2023-02-01T15:59:56;9.45;;;5.38;;
59516;SDS011;45342;42.662;27.718;2023-02-01T16:02:28;7.38;;;5.00;;
59516;SDS011;45342;42.662;27.718;2023-02-01T16:04:53;9.82;;;5.13;;
59516;SDS011;45342;42.662;27.718;2023-02-01T16:07:25;9.13;;;5.40;;
59516;SDS011;45342;42.662;27.718;2023-02-01T16:09:54;9.70;;;5.50;;
59516;SDS011;45342;42.662;27.718;2023-02-01T16:17:39;10.25;;;5.07;;
59516;SDS011;45342;42.662;27.718;2023-02-01T16:20:05;9.23;;;5.20;;
59516;SDS011;45342;42.662;27.718;2023-02-01T16:27:26;10.88;;;5.13;;
59516;SDS011;45342;42.662;27.718;2023-02-01T16:29:52;9.27;;;4.90;;
59516;SDS011;45342;42.662;27.718;2023-02-01T16:37:48;7.45;;;5.00;;
59516;SDS011;45342;42.662;27.718;2023-02-01T16:42:52;6.78;;;4.93;;
59516;SDS011;45342;42.662;27.718;2023-02-01T16:47:50;8.18;;;4.90;;
59516;SDS011;45342;42.662;27.718;2023-02-01T16:50:20;7.72;;;4.80;;
59516;SDS011;45342;42.662;27.718;2023-02-01T16:52:47;8.13;;;5.07;;
59516;SDS011;45342;42.662;27.718;2023-02-01T16:55:18;6.95;;;4.78;;
59516;SDS011;45342;42.662;27.718;2023-02-01T16:58:02;7.13;;;5.00;;
59516;SDS011;45342;42.662;27.718;2023-02-01T17:04:02;7.57;;;4.82;;
59516;SDS011;45342;42.662;27.718;2023-02-01T17:09:52;8.85;;;4.70;;
59516;SDS011;45342;42.662;27.718;2023-02-01T17:17:48;8.23;;;4.75;;
59516;SDS011;45342;42.662;27.718;2023-02-01T17:20:21;6.82;;;4.47;;
59516;SDS011;45342;42.662;27.718;2023-02-01T17:22:50;6.88;;;4.45;;
59516;SDS011;45342;42.662;27.718;2023-02-01T17:25:27;8.60;;;4.18;;
59516;SDS011;45342;42.662;27.718;2023-02-01T17:27:54;8.40;;;4.70;;
59516;SDS011;45342;42.662;27.718;2023-02-01T17:30:19;6.40;;;4.38;;
59516;SDS011;45342;42.662;27.718;2023-02-01T17:32:51;6.18;;;4.35;;
59516;SDS011;45342;42.662;27.718;2023-02-01T17:35:34;7.18;;;4.35;;
59516;SDS011;45342;42.662;27.718;2023-02-01T17:38:14;6.45;;;4.40;;
59516;SDS011;45342;42.662;27.718;2023-02-01T17:40:47;6.40;;;4.32;;
59516;SDS011;45342;42.662;27.718;2023-02-01T17:43:29;8.25;;;4.38;;
59516;SDS011;45342;42.662;27.718;2023-02-01T17:49:11;7.32;;;3.85;;
59516;SDS011;45342;42.662;27.718;2023-02-01T17:56:48;5.32;;;3.83;;
59516;SDS011;45342;42.662;27.718;2023-02-01T17:59:14;5.85;;;3.75;;
59516;SDS011;45342;42.662;27.718;2023-02-01T18:01:42;6.82;;;4.30;;
59516;SDS011;45342;42.662;27.718;2023-02-01T18:04:13;6.97;;;4.57;;
59516;SDS011;45342;42.662;27.718;2023-02-01T18:09:37;5.85;;;4.10;;
59516;SDS011;45342;42.662;27.718;2023-02-01T18:14:53;5.75;;;3.88;;
59516;SDS011;45342;42.662;27.718;2023-02-01T18:17:19;5.03;;;3.83;;
59516;SDS011;45342;42.662;27.718;2023-02-01T18:19:45;6.45;;;4.05;;
59516;SDS011;45342;42.662;27.718;2023-02-01T18:22:17;6.28;;;4.30;;
59516;SDS011;45342;42.662;27.718;2023-02-01T18:24:44;6.30;;;3.95;;
59516;SDS011;45342;42.662;27.718;2023-02-01T18:27:11;8.43;;;3.90;;
59516;SDS011;45342;42.662;27.718;2023-02-01T18:29:37;5.50;;;3.88;;
59516;SDS011;45342;42.662;27.718;2023-02-01T18:32:03;7.32;;;4.03;;
59516;SDS011;45342;42.662;27.718;2023-02-01T18:37:00;5.68;;;3.90;;
59516;SDS011;45342;42.662;27.718;2023-02-01T18:39:32;6.80;;;4.32;;
59516;SDS011;45342;42.662;27.718;2023-02-01T18:41:58;6.03;;;3.80;;
59516;SDS011;45342;42.662;27.718;2023-02-01T18:44:24;6.13;;;4.30;;
59516;SDS011;45342;42.662;27.718;2023-02-01T18:46:51;7.72;;;4.38;;
59516;SDS011;45342;42.662;27.718;2023-02-01T18:49:16;7.32;;;4.05;;
59516;SDS011;45342;42.662;27.718;2023-02-01T18:51:44;7.47;;;4.28;;
59516;SDS011;45342;42.662;27.718;2023-02-01T18:54:11;5.38;;;4.25;;
59516;SDS011;45342;42.662;27.718;2023-02-01T18:56:36;5.72;;;3.85;;
59516;SDS011;45342;42.662;27.718;2023-02-01T18:59:03;6.85;;;4.15;;
59516;SDS011;45342;42.662;27.718;2023-02-01T19:01:30;7.07;;;4.30;;
59516;SDS011;45342;42.662;27.718;2023-02-01T19:03:56;6.20;;;4.00;;
59516;SDS011;45342;42.662;27.718;2023-02-01T19:06:26;6.25;;;4.57;;
59516;SDS011;45342;42.662;27.718;2023-02-01T19:08:54;5.95;;;4.20;;
59516;SDS011;45342;42.662;27.718;2023-02-01T19:11:22;6.03;;;4.00;;
59516;SDS011;45342;42.662;27.718;2023-02-01T19:13:51;6.20;;;4.35;;
59516;SDS011;45342;42.662;27.718;2023-02-01T19:16:19;6.80;;;4.15;;
59516;SDS011;45342;42.662;27.718;2023-02-01T19:18:44;6.68;;;4.38;;
59516;SDS011;45342;42.662;27.718;2023-02-01T19:21:16;6.43;;;4.20;;
59516;SDS011;45342;42.662;27.718;2023-02-01T19:23:42;6.15;;;4.07;;
59516;SDS011;45342;42.662;27.718;2023-02-01T19:31:12;6.18;;;4.05;;
59516;SDS011;45342;42.662;27.718;2023-02-01T19:33:45;5.13;;;3.97;;
59516;SDS011;45342;42.662;27.718;2023-02-01T19:36:13;4.05;;;3.47;;
59516;SDS011;45342;42.662;27.718;2023-02-01T19:38:45;7.25;;;4.40;;
59516;SDS011;45342;42.662;27.718;2023-02-01T19:41:12;5.93;;;4.00;;
59516;SDS011;45342;42.662;27.718;2023-02-01T19:43:38;8.30;;;4.00;;
59516;SDS011;45342;42.662;27.718;2023-02-01T19:46:04;6.57;;;4.22;;
59516;SDS011;45342;42.662;27.718;2023-02-01T19:48:30;5.50;;;3.88;;
59516;SDS011;45342;42.662;27.718;2023-02-01T19:51:00;5.13;;;3.65;;
59516;SDS011;45342;42.662;27.718;2023-02-01T19:53:26;5.75;;;3.78;;
59516;SDS011;45342;42.662;27.718;2023-02-01T19:56:03;6.03;;;4.13;;
59516;SDS011;45342;42.662;27.718;2023-02-01T19:58:32;6.93;;;4.00;;
59516;SDS011;45342;42.662;27.718;2023-02-01T20:00:59;4.50;;;3.40;;
59516;SDS011;45342;42.662;27.718;2023-02-01T20:03:24;5.28;;;3.92;;
59516;SDS011;45342;42.662;27.718;2023-02-01T20:05:51;5.93;;;3.80;;
59516;SDS011;45342;42.662;27.718;2023-02-01T20:08:25;5.05;;;3.45;;
59516;SDS011;45342;42.662;27.718;2023-02-01T20:10:57;5.57;;;3.55;;
59516;SDS011;45342;42.662;27.718;2023-02-01T20:13:27;5.40;;;3.90;;
59516;SDS011;45342;42.662;27.718;2023-02-01T20:18:50;5.15;;;3.58;;
59516;SDS011;45342;42.662;27.718;2023-02-01T20:23:49;5.53;;;3.90;;
59516;SDS011;45342;42.662;27.718;2023-02-01T20:26:24;5.18;;;3.80;;
59516;SDS011;45342;42.662;27.718;2023-02-01T20:28:50;4.53;;;3.70;;
59516;SDS011;45342;42.662;27.718;2023-02-01T20:31:16;4.93;;;3.70;;